Terminal Aerodrome Forecast
Issued by NWS Houston/Galveston TX

Current Version | Previous Version | Text Only | Print | Product List | Glossary Off
Versions: 1 2 3 4 5 6 7 8 9 10 11 12 13 14 15 16 17 18 19 20 21 22 23 24 25 26 27 28 29 30 31 32 33 34 35 36 37 38 39 40 41 42 43 44 45 46 47 48

000
FTUS44 KHGX 012059 AAA
TAFHOU
TAF AMD
KHOU 012059Z 0121/0218 16008KT P6SM SCT050
     FM020000 16006KT P6SM SCT100
     FM020900 18003KT P6SM VCSH SCT006 BKN015
     FM021400 18008KT P6SM SCT015 BKN025=

USA.gov is the U.S. government's official web portal to all federal, state and local government web resources and services.